Etusivu
METAR-TAF:

METAR-TAF

Lentoasemat :

Columbus, Mississippi, Yhdysvallat

Leveyspiiri: 33-39N, Pituuspiiri: 088-27W, korkeus merenpinnasta: 67 m

Tämänhetkinen sää

Tämä raportti tehtiin 27 minuuttia sitten, kello 20.56 UTC
Tuuli 8 kn luoteesta
Lämpötila 14°C
Kosteus 31%
Ilmanpaine 1019 hPa
Näkyvyys: 12.9 km
selkeää

METAR: KCBM 162056Z AUTO 32008KT 8SM CLR 14/M03 A3010 RMK AO2 SLP197 T01441030 56020 $

Aika: 15:23 (21:23 UTC)

Sääennuste

Tämä raportti tehtiin 21 tuntia ja 58 minuuttia sitten, kello 23.25 UTC
Ennuste voimassa 15. päivästä klo 23 UTC - 16. päivään klo 23 UTC
Tuuli 10 kn pohjoisesta puuskistuen 15 kn:hen
Näkyvyys: 1716 m
selkeää

TAF: KCBM 152325Z 1523/1623 35010G15KT 9999 SKC QNH3009INS TX09/1617Z TN00/1612Z LAST NO AMDS AFT 1523 NEXT 1716

Säähavainnot ja -ennusteet yli 4000 lentoasemalta (METAR- ja TAF-raportit).

Käytössä olevat sääasemat on merkitty karttaan keltaisilla ja punaisilla pisteillä.

Aseta hiiri pisteen päälle nähdäksesi sääaseman nimen.

Klikkaa sitten nähdäksesi säähavainnot ja -ennusteet.

Kartan vaihtaminen: klikkaa mustalla rastilla varustettuja vihreitä pisteitä, niin voit zoomata sisään; viivalla varustettua vihreää pistettä, niin voit zoomata ulos tai vihreitä nuolia, niin pääset viereisille kartoille.


METAR-TAF: